sensor_id;sensor_type;location;lat;lon;timestamp;P1;durP1;ratioP1;P2;durP2;ratioP2
22764;SDS011;11549;50.852;3.816;2023-05-08T00:00:02;77.25;;;52.38;;
22764;SDS011;11549;50.852;3.816;2023-05-08T00:02:31;68.97;;;48.63;;
22764;SDS011;11549;50.852;3.816;2023-05-08T00:04:59;74.40;;;51.65;;
22764;SDS011;11549;50.852;3.816;2023-05-08T00:07:28;80.00;;;52.65;;
22764;SDS011;11549;50.852;3.816;2023-05-08T00:09:58;80.28;;;54.15;;
22764;SDS011;11549;50.852;3.816;2023-05-08T00:12:26;80.57;;;52.63;;
22764;SDS011;11549;50.852;3.816;2023-05-08T00:14:55;89.70;;;57.50;;
22764;SDS011;11549;50.852;3.816;2023-05-08T00:17:23;91.63;;;55.28;;
22764;SDS011;11549;50.852;3.816;2023-05-08T00:19:52;91.82;;;58.42;;
22764;SDS011;11549;50.852;3.816;2023-05-08T00:22:20;93.10;;;58.85;;
22764;SDS011;11549;50.852;3.816;2023-05-08T00:24:48;98.35;;;61.10;;
22764;SDS011;11549;50.852;3.816;2023-05-08T00:27:18;91.25;;;59.63;;
22764;SDS011;11549;50.852;3.816;2023-05-08T00:29:47;95.90;;;61.00;;
22764;SDS011;11549;50.852;3.816;2023-05-08T00:32:15;104.68;;;63.10;;
22764;SDS011;11549;50.852;3.816;2023-05-08T00:34:44;100.72;;;62.20;;
22764;SDS011;11549;50.852;3.816;2023-05-08T00:37:12;104.68;;;62.67;;
22764;SDS011;11549;50.852;3.816;2023-05-08T00:39:40;110.47;;;68.43;;
22764;SDS011;11549;50.852;3.816;2023-05-08T00:42:16;116.40;;;68.47;;
22764;SDS011;11549;50.852;3.816;2023-05-08T00:44:46;113.80;;;66.75;;
22764;SDS011;11549;50.852;3.816;2023-05-08T00:47:14;116.15;;;68.43;;
22764;SDS011;11549;50.852;3.816;2023-05-08T00:49:42;120.43;;;69.88;;
22764;SDS011;11549;50.852;3.816;2023-05-08T00:52:11;120.97;;;68.05;;
22764;SDS011;11549;50.852;3.816;2023-05-08T00:54:40;123.25;;;70.55;;
22764;SDS011;11549;50.852;3.816;2023-05-08T00:57:08;117.05;;;68.30;;
22764;SDS011;11549;50.852;3.816;2023-05-08T00:59:37;118.70;;;68.05;;
22764;SDS011;11549;50.852;3.816;2023-05-08T01:02:08;123.03;;;71.30;;
22764;SDS011;11549;50.852;3.816;2023-05-08T01:04:37;124.72;;;70.93;;
22764;SDS011;11549;50.852;3.816;2023-05-08T01:07:05;132.50;;;73.47;;
22764;SDS011;11549;50.852;3.816;2023-05-08T01:09:33;127.65;;;73.32;;
22764;SDS011;11549;50.852;3.816;2023-05-08T01:12:05;189.68;;;76.13;;
22764;SDS011;11549;50.852;3.816;2023-05-08T01:14:45;132.82;;;71.10;;
22764;SDS011;11549;50.852;3.816;2023-05-08T01:17:25;124.30;;;71.55;;
22764;SDS011;11549;50.852;3.816;2023-05-08T01:20:01;123.32;;;69.00;;
22764;SDS011;11549;50.852;3.816;2023-05-08T01:22:44;132.55;;;72.15;;
22764;SDS011;11549;50.852;3.816;2023-05-08T01:25:34;135.50;;;71.20;;
22764;SDS011;11549;50.852;3.816;2023-05-08T01:28:24;132.35;;;72.25;;
22764;SDS011;11549;50.852;3.816;2023-05-08T01:31:16;139.82;;;74.50;;
22764;SDS011;11549;50.852;3.816;2023-05-08T01:33:55;154.55;;;77.60;;
22764;SDS011;11549;50.852;3.816;2023-05-08T01:36:32;145.27;;;73.28;;
22764;SDS011;11549;50.852;3.816;2023-05-08T01:39:09;151.63;;;76.38;;
22764;SDS011;11549;50.852;3.816;2023-05-08T01:41:45;148.55;;;74.47;;
22764;SDS011;11549;50.852;3.816;2023-05-08T01:44:20;150.02;;;72.15;;
22764;SDS011;11549;50.852;3.816;2023-05-08T01:46:55;149.82;;;71.45;;
22764;SDS011;11549;50.852;3.816;2023-05-08T01:49:27;156.18;;;70.80;;
22764;SDS011;11549;50.852;3.816;2023-05-08T01:52:02;160.07;;;73.97;;
22764;SDS011;11549;50.852;3.816;2023-05-08T01:54:34;153.98;;;70.05;;
22764;SDS011;11549;50.852;3.816;2023-05-08T01:57:08;158.30;;;70.90;;
22764;SDS011;11549;50.852;3.816;2023-05-08T01:59:39;149.02;;;68.03;;
22764;SDS011;11549;50.852;3.816;2023-05-08T02:02:09;180.23;;;74.07;;
22764;SDS011;11549;50.852;3.816;2023-05-08T02:04:40;179.50;;;70.60;;
22764;SDS011;11549;50.852;3.816;2023-05-08T02:07:10;166.23;;;67.00;;
22764;SDS011;11549;50.852;3.816;2023-05-08T02:09:39;159.05;;;61.80;;
22764;SDS011;11549;50.852;3.816;2023-05-08T02:12:09;158.60;;;61.22;;
22764;SDS011;11549;50.852;3.816;2023-05-08T02:14:40;173.13;;;61.22;;
22764;SDS011;11549;50.852;3.816;2023-05-08T02:17:10;172.90;;;61.30;;
22764;SDS011;11549;50.852;3.816;2023-05-08T02:19:43;189.95;;;60.95;;
22764;SDS011;11549;50.852;3.816;2023-05-08T02:22:12;187.68;;;62.58;;
22764;SDS011;11549;50.852;3.816;2023-05-08T02:24:42;184.52;;;62.42;;
22764;SDS011;11549;50.852;3.816;2023-05-08T02:27:12;183.82;;;60.15;;
22764;SDS011;11549;50.852;3.816;2023-05-08T02:29:42;202.23;;;61.38;;
22764;SDS011;11549;50.852;3.816;2023-05-08T02:32:11;185.57;;;61.80;;
22764;SDS011;11549;50.852;3.816;2023-05-08T02:34:43;207.48;;;62.58;;
22764;SDS011;11549;50.852;3.816;2023-05-08T02:37:28;206.13;;;63.42;;
22764;SDS011;11549;50.852;3.816;2023-05-08T02:39:57;190.60;;;62.45;;
22764;SDS011;11549;50.852;3.816;2023-05-08T02:42:28;208.93;;;64.88;;
22764;SDS011;11549;50.852;3.816;2023-05-08T02:44:57;200.45;;;64.18;;
22764;SDS011;11549;50.852;3.816;2023-05-08T02:47:26;220.20;;;65.68;;
22764;SDS011;11549;50.852;3.816;2023-05-08T02:50:03;239.43;;;65.05;;
22764;SDS011;11549;50.852;3.816;2023-05-08T02:52:37;200.95;;;66.53;;
22764;SDS011;11549;50.852;3.816;2023-05-08T02:55:14;194.60;;;64.35;;
22764;SDS011;11549;50.852;3.816;2023-05-08T02:57:56;199.73;;;65.20;;
22764;SDS011;11549;50.852;3.816;2023-05-08T03:00:34;194.30;;;63.35;;
22764;SDS011;11549;50.852;3.816;2023-05-08T03:03:11;216.38;;;65.68;;
22764;SDS011;11549;50.852;3.816;2023-05-08T03:05:48;197.90;;;64.18;;
22764;SDS011;11549;50.852;3.816;2023-05-08T03:08:23;170.30;;;60.38;;
22764;SDS011;11549;50.852;3.816;2023-05-08T03:10:54;218.63;;;63.03;;
22764;SDS011;11549;50.852;3.816;2023-05-08T03:13:26;170.85;;;62.08;;
22764;SDS011;11549;50.852;3.816;2023-05-08T03:15:58;184.05;;;61.42;;
22764;SDS011;11549;50.852;3.816;2023-05-08T03:18:31;400.23;;;69.95;;
22764;SDS011;11549;50.852;3.816;2023-05-08T03:21:03;187.45;;;60.92;;
22764;SDS011;11549;50.852;3.816;2023-05-08T03:23:34;269.13;;;60.47;;
22764;SDS011;11549;50.852;3.816;2023-05-08T03:26:05;152.50;;;57.67;;
22764;SDS011;11549;50.852;3.816;2023-05-08T03:28:35;157.38;;;57.55;;
22764;SDS011;11549;50.852;3.816;2023-05-08T03:31:05;151.10;;;56.05;;
22764;SDS011;11549;50.852;3.816;2023-05-08T03:33:35;156.57;;;58.35;;
22764;SDS011;11549;50.852;3.816;2023-05-08T03:36:07;143.10;;;54.50;;
22764;SDS011;11549;50.852;3.816;2023-05-08T03:38:35;134.00;;;54.75;;
22764;SDS011;11549;50.852;3.816;2023-05-08T03:41:05;137.27;;;52.53;;
22764;SDS011;11549;50.852;3.816;2023-05-08T03:43:34;138.05;;;52.90;;
22764;SDS011;11549;50.852;3.816;2023-05-08T03:46:03;153.65;;;55.10;;
22764;SDS011;11549;50.852;3.816;2023-05-08T03:48:33;131.00;;;51.00;;
22764;SDS011;11549;50.852;3.816;2023-05-08T03:51:03;135.80;;;53.88;;
22764;SDS011;11549;50.852;3.816;2023-05-08T03:53:33;144.57;;;55.25;;
22764;SDS011;11549;50.852;3.816;2023-05-08T03:56:01;141.25;;;54.45;;
22764;SDS011;11549;50.852;3.816;2023-05-08T03:58:31;161.95;;;58.28;;
22764;SDS011;11549;50.852;3.816;2023-05-08T04:01:05;155.10;;;58.00;;
22764;SDS011;11549;50.852;3.816;2023-05-08T04:03:43;149.95;;;54.88;;
22764;SDS011;11549;50.852;3.816;2023-05-08T04:06:22;238.02;;;62.38;;
22764;SDS011;11549;50.852;3.816;2023-05-08T04:09:16;155.35;;;57.17;;
22764;SDS011;11549;50.852;3.816;2023-05-08T04:11:51;162.73;;;57.83;;
22764;SDS011;11549;50.852;3.816;2023-05-08T04:14:26;160.35;;;57.22;;
22764;SDS011;11549;50.852;3.816;2023-05-08T04:17:01;168.80;;;55.95;;
22764;SDS011;11549;50.852;3.816;2023-05-08T04:19:32;137.68;;;54.25;;
22764;SDS011;11549;50.852;3.816;2023-05-08T04:22:05;169.90;;;56.88;;
22764;SDS011;11549;50.852;3.816;2023-05-08T04:24:41;201.30;;;61.42;;
22764;SDS011;11549;50.852;3.816;2023-05-08T04:27:12;232.38;;;60.70;;
22764;SDS011;11549;50.852;3.816;2023-05-08T04:29:40;165.15;;;56.33;;
22764;SDS011;11549;50.852;3.816;2023-05-08T04:32:09;169.98;;;58.35;;
22764;SDS011;11549;50.852;3.816;2023-05-08T04:34:38;151.52;;;57.25;;
22764;SDS011;11549;50.852;3.816;2023-05-08T04:37:07;139.77;;;53.22;;
22764;SDS011;11549;50.852;3.816;2023-05-08T04:39:36;135.82;;;53.67;;
22764;SDS011;11549;50.852;3.816;2023-05-08T04:42:05;140.70;;;54.15;;
22764;SDS011;11549;50.852;3.816;2023-05-08T04:44:34;133.32;;;52.38;;
22764;SDS011;11549;50.852;3.816;2023-05-08T04:47:02;131.82;;;51.92;;
22764;SDS011;11549;50.852;3.816;2023-05-08T04:49:30;117.57;;;48.25;;
22764;SDS011;11549;50.852;3.816;2023-05-08T04:51:59;111.97;;;49.30;;
22764;SDS011;11549;50.852;3.816;2023-05-08T04:54:27;116.38;;;49.50;;
22764;SDS011;11549;50.852;3.816;2023-05-08T04:56:56;107.80;;;47.17;;
22764;SDS011;11549;50.852;3.816;2023-05-08T04:59:26;108.40;;;48.08;;
22764;SDS011;11549;50.852;3.816;2023-05-08T05:01:55;108.13;;;46.85;;
22764;SDS011;11549;50.852;3.816;2023-05-08T05:04:23;100.53;;;46.15;;
22764;SDS011;11549;50.852;3.816;2023-05-08T05:06:51;100.43;;;44.42;;
22764;SDS011;11549;50.852;3.816;2023-05-08T05:09:20;103.85;;;46.42;;
22764;SDS011;11549;50.852;3.816;2023-05-08T05:11:48;106.72;;;49.88;;
22764;SDS011;11549;50.852;3.816;2023-05-08T05:14:16;113.43;;;49.67;;
22764;SDS011;11549;50.852;3.816;2023-05-08T05:16:46;91.00;;;44.08;;
22764;SDS011;11549;50.852;3.816;2023-05-08T05:19:14;96.35;;;45.30;;
22764;SDS011;11549;50.852;3.816;2023-05-08T05:21:43;99.30;;;46.72;;
22764;SDS011;11549;50.852;3.816;2023-05-08T05:24:11;89.22;;;43.38;;
22764;SDS011;11549;50.852;3.816;2023-05-08T05:26:39;100.45;;;44.25;;
22764;SDS011;11549;50.852;3.816;2023-05-08T05:29:07;95.90;;;43.63;;
22764;SDS011;11549;50.852;3.816;2023-05-08T05:31:36;76.13;;;40.38;;
22764;SDS011;11549;50.852;3.816;2023-05-08T05:34:05;94.22;;;42.42;;
22764;SDS011;11549;50.852;3.816;2023-05-08T05:36:34;78.15;;;39.88;;
22764;SDS011;11549;50.852;3.816;2023-05-08T05:39:02;90.10;;;39.83;;
22764;SDS011;11549;50.852;3.816;2023-05-08T05:41:31;69.30;;;37.75;;
22764;SDS011;11549;50.852;3.816;2023-05-08T05:43:59;84.88;;;40.03;;
22764;SDS011;11549;50.852;3.816;2023-05-08T05:46:28;87.20;;;39.30;;
22764;SDS011;11549;50.852;3.816;2023-05-08T05:48:58;76.53;;;38.63;;
22764;SDS011;11549;50.852;3.816;2023-05-08T05:51:27;80.32;;;39.05;;
22764;SDS011;11549;50.852;3.816;2023-05-08T05:53:55;85.13;;;38.45;;
22764;SDS011;11549;50.852;3.816;2023-05-08T05:56:24;82.18;;;40.60;;
22764;SDS011;11549;50.852;3.816;2023-05-08T05:58:52;79.25;;;39.83;;
22764;SDS011;11549;50.852;3.816;2023-05-08T06:01:20;80.90;;;39.17;;
22764;SDS011;11549;50.852;3.816;2023-05-08T06:03:50;81.35;;;37.80;;
22764;SDS011;11549;50.852;3.816;2023-05-08T06:06:18;87.28;;;39.25;;
22764;SDS011;11549;50.852;3.816;2023-05-08T06:08:48;72.45;;;37.40;;
22764;SDS011;11549;50.852;3.816;2023-05-08T06:11:16;75.95;;;38.13;;
22764;SDS011;11549;50.852;3.816;2023-05-08T06:13:44;74.18;;;37.45;;
22764;SDS011;11549;50.852;3.816;2023-05-08T06:16:15;78.82;;;37.40;;
22764;SDS011;11549;50.852;3.816;2023-05-08T06:18:46;87.65;;;41.42;;
22764;SDS011;11549;50.852;3.816;2023-05-08T06:21:14;97.68;;;39.00;;
22764;SDS011;11549;50.852;3.816;2023-05-08T06:23:42;84.53;;;37.42;;
22764;SDS011;11549;50.852;3.816;2023-05-08T06:26:12;77.90;;;38.25;;
22764;SDS011;11549;50.852;3.816;2023-05-08T06:28:40;71.28;;;35.28;;
22764;SDS011;11549;50.852;3.816;2023-05-08T06:31:08;70.13;;;36.40;;
22764;SDS011;11549;50.852;3.816;2023-05-08T06:33:37;94.57;;;36.35;;
22764;SDS011;11549;50.852;3.816;2023-05-08T06:36:05;68.55;;;35.08;;
22764;SDS011;11549;50.852;3.816;2023-05-08T06:38:34;66.53;;;32.63;;
22764;SDS011;11549;50.852;3.816;2023-05-08T06:41:02;63.53;;;32.47;;
22764;SDS011;11549;50.852;3.816;2023-05-08T06:43:32;56.97;;;30.45;;
22764;SDS011;11549;50.852;3.816;2023-05-08T06:46:00;66.45;;;33.28;;
22764;SDS011;11549;50.852;3.816;2023-05-08T06:48:29;56.22;;;31.02;;
22764;SDS011;11549;50.852;3.816;2023-05-08T06:50:57;69.97;;;31.98;;
22764;SDS011;11549;50.852;3.816;2023-05-08T06:53:25;66.70;;;33.25;;
22764;SDS011;11549;50.852;3.816;2023-05-08T06:55:54;63.78;;;32.00;;
22764;SDS011;11549;50.852;3.816;2023-05-08T06:58:24;61.15;;;32.75;;
22764;SDS011;11549;50.852;3.816;2023-05-08T07:00:53;58.30;;;31.23;;
22764;SDS011;11549;50.852;3.816;2023-05-08T07:03:22;53.83;;;30.45;;
22764;SDS011;11549;50.852;3.816;2023-05-08T07:05:50;62.38;;;31.15;;
22764;SDS011;11549;50.852;3.816;2023-05-08T07:08:19;57.15;;;28.52;;
22764;SDS011;11549;50.852;3.816;2023-05-08T07:10:47;52.05;;;28.17;;
22764;SDS011;11549;50.852;3.816;2023-05-08T07:13:15;52.10;;;28.15;;
22764;SDS011;11549;50.852;3.816;2023-05-08T07:15:47;47.35;;;26.98;;
22764;SDS011;11549;50.852;3.816;2023-05-08T07:18:17;46.08;;;27.08;;
22764;SDS011;11549;50.852;3.816;2023-05-08T07:20:45;42.08;;;25.77;;
22764;SDS011;11549;50.852;3.816;2023-05-08T07:23:13;40.83;;;24.60;;
22764;SDS011;11549;50.852;3.816;2023-05-08T07:25:42;42.28;;;24.17;;
22764;SDS011;11549;50.852;3.816;2023-05-08T07:28:10;44.70;;;26.42;;
22764;SDS011;11549;50.852;3.816;2023-05-08T07:30:38;38.60;;;24.15;;
22764;SDS011;11549;50.852;3.816;2023-05-08T07:33:06;42.17;;;25.10;;
22764;SDS011;11549;50.852;3.816;2023-05-08T07:35:38;39.80;;;23.95;;
22764;SDS011;11549;50.852;3.816;2023-05-08T07:38:07;42.20;;;23.80;;
22764;SDS011;11549;50.852;3.816;2023-05-08T07:40:35;37.92;;;23.38;;
22764;SDS011;11549;50.852;3.816;2023-05-08T07:43:03;37.78;;;22.73;;
22764;SDS011;11549;50.852;3.816;2023-05-08T07:45:32;36.53;;;22.60;;
22764;SDS011;11549;50.852;3.816;2023-05-08T07:48:02;35.97;;;22.88;;
22764;SDS011;11549;50.852;3.816;2023-05-08T07:50:30;37.42;;;23.02;;
22764;SDS011;11549;50.852;3.816;2023-05-08T07:53:01;33.17;;;19.83;;
22764;SDS011;11549;50.852;3.816;2023-05-08T07:55:29;36.22;;;22.25;;
22764;SDS011;11549;50.852;3.816;2023-05-08T07:57:58;34.25;;;20.75;;
22764;SDS011;11549;50.852;3.816;2023-05-08T08:00:26;30.15;;;19.02;;
22764;SDS011;11549;50.852;3.816;2023-05-08T08:02:55;32.92;;;19.50;;
22764;SDS011;11549;50.852;3.816;2023-05-08T08:05:23;31.05;;;19.58;;
22764;SDS011;11549;50.852;3.816;2023-05-08T08:07:52;30.63;;;19.73;;
22764;SDS011;11549;50.852;3.816;2023-05-08T08:10:21;31.80;;;18.90;;
22764;SDS011;11549;50.852;3.816;2023-05-08T08:12:50;32.92;;;19.23;;
22764;SDS011;11549;50.852;3.816;2023-05-08T08:15:18;28.55;;;19.10;;
22764;SDS011;11549;50.852;3.816;2023-05-08T08:17:47;30.73;;;19.48;;
22764;SDS011;11549;50.852;3.816;2023-05-08T08:20:15;30.50;;;18.52;;
22764;SDS011;11549;50.852;3.816;2023-05-08T08:22:44;28.67;;;18.20;;
22764;SDS011;11549;50.852;3.816;2023-05-08T08:25:12;31.35;;;19.83;;
22764;SDS011;11549;50.852;3.816;2023-05-08T08:27:42;33.97;;;19.48;;
22764;SDS011;11549;50.852;3.816;2023-05-08T08:30:11;29.20;;;18.13;;
22764;SDS011;11549;50.852;3.816;2023-05-08T08:32:44;34.17;;;19.83;;
22764;SDS011;11549;50.852;3.816;2023-05-08T08:35:13;34.38;;;20.38;;
22764;SDS011;11549;50.852;3.816;2023-05-08T08:37:42;34.80;;;22.02;;
22764;SDS011;11549;50.852;3.816;2023-05-08T08:40:11;42.20;;;23.13;;
22764;SDS011;11549;50.852;3.816;2023-05-08T08:42:39;43.58;;;25.15;;
22764;SDS011;11549;50.852;3.816;2023-05-08T08:45:09;51.05;;;27.48;;
22764;SDS011;11549;50.852;3.816;2023-05-08T08:47:38;49.40;;;27.10;;
22764;SDS011;11549;50.852;3.816;2023-05-08T08:50:08;51.22;;;28.75;;
22764;SDS011;11549;50.852;3.816;2023-05-08T08:52:42;50.60;;;27.17;;
22764;SDS011;11549;50.852;3.816;2023-05-08T08:55:20;46.30;;;26.17;;
22764;SDS011;11549;50.852;3.816;2023-05-08T08:57:52;41.58;;;24.40;;
22764;SDS011;11549;50.852;3.816;2023-05-08T09:00:29;37.88;;;23.35;;
22764;SDS011;11549;50.852;3.816;2023-05-08T09:02:59;36.83;;;22.55;;
22764;SDS011;11549;50.852;3.816;2023-05-08T09:05:28;35.65;;;22.45;;
22764;SDS011;11549;50.852;3.816;2023-05-08T09:07:56;34.45;;;21.38;;
22764;SDS011;11549;50.852;3.816;2023-05-08T09:10:26;33.90;;;21.35;;
22764;SDS011;11549;50.852;3.816;2023-05-08T09:12:54;28.42;;;20.15;;
22764;SDS011;11549;50.852;3.816;2023-05-08T09:15:24;29.75;;;20.30;;
22764;SDS011;11549;50.852;3.816;2023-05-08T09:17:53;29.55;;;19.25;;
22764;SDS011;11549;50.852;3.816;2023-05-08T09:20:22;31.67;;;19.88;;
22764;SDS011;11549;50.852;3.816;2023-05-08T09:22:52;29.30;;;19.58;;
22764;SDS011;11549;50.852;3.816;2023-05-08T09:25:22;28.75;;;18.73;;
22764;SDS011;11549;50.852;3.816;2023-05-08T09:27:50;26.75;;;18.10;;
22764;SDS011;11549;50.852;3.816;2023-05-08T09:30:18;26.05;;;17.73;;
22764;SDS011;11549;50.852;3.816;2023-05-08T09:32:47;26.50;;;17.60;;
22764;SDS011;11549;50.852;3.816;2023-05-08T09:35:17;23.65;;;17.50;;
22764;SDS011;11549;50.852;3.816;2023-05-08T09:37:45;24.17;;;17.08;;
22764;SDS011;11549;50.852;3.816;2023-05-08T09:40:17;28.05;;;18.48;;
22764;SDS011;11549;50.852;3.816;2023-05-08T09:42:46;25.92;;;17.17;;
22764;SDS011;11549;50.852;3.816;2023-05-08T09:45:25;26.88;;;17.58;;
22764;SDS011;11549;50.852;3.816;2023-05-08T09:47:55;24.38;;;16.73;;
22764;SDS011;11549;50.852;3.816;2023-05-08T09:50:25;22.95;;;16.70;;
22764;SDS011;11549;50.852;3.816;2023-05-08T09:52:53;23.50;;;16.80;;
22764;SDS011;11549;50.852;3.816;2023-05-08T09:55:22;27.83;;;18.13;;
22764;SDS011;11549;50.852;3.816;2023-05-08T09:57:51;24.50;;;16.83;;
22764;SDS011;11549;50.852;3.816;2023-05-08T10:00:21;25.17;;;16.10;;
22764;SDS011;11549;50.852;3.816;2023-05-08T10:02:54;23.95;;;17.60;;
22764;SDS011;11549;50.852;3.816;2023-05-08T10:05:26;24.15;;;17.15;;
22764;SDS011;11549;50.852;3.816;2023-05-08T10:07:57;25.80;;;16.85;;
22764;SDS011;11549;50.852;3.816;2023-05-08T10:10:44;25.30;;;17.35;;
22764;SDS011;11549;50.852;3.816;2023-05-08T10:13:12;24.52;;;16.85;;
22764;SDS011;11549;50.852;3.816;2023-05-08T10:15:41;25.60;;;17.67;;
22764;SDS011;11549;50.852;3.816;2023-05-08T10:18:10;24.25;;;16.45;;
22764;SDS011;11549;50.852;3.816;2023-05-08T10:20:42;22.95;;;16.27;;
22764;SDS011;11549;50.852;3.816;2023-05-08T10:23:15;25.00;;;16.45;;
22764;SDS011;11549;50.852;3.816;2023-05-08T10:25:45;22.98;;;15.93;;
22764;SDS011;11549;50.852;3.816;2023-05-08T10:28:15;23.80;;;16.15;;
22764;SDS011;11549;50.852;3.816;2023-05-08T10:30:49;24.75;;;15.93;;
22764;SDS011;11549;50.852;3.816;2023-05-08T10:33:23;20.42;;;14.57;;
22764;SDS011;11549;50.852;3.816;2023-05-08T10:35:58;24.42;;;15.85;;
22764;SDS011;11549;50.852;3.816;2023-05-08T10:38:27;25.00;;;16.67;;
22764;SDS011;11549;50.852;3.816;2023-05-08T10:40:58;21.85;;;15.43;;
22764;SDS011;11549;50.852;3.816;2023-05-08T10:43:28;24.50;;;15.88;;
22764;SDS011;11549;50.852;3.816;2023-05-08T10:45:57;25.33;;;16.58;;
22764;SDS011;11549;50.852;3.816;2023-05-08T10:48:34;22.60;;;15.02;;
22764;SDS011;11549;50.852;3.816;2023-05-08T10:51:12;24.17;;;16.23;;
22764;SDS011;11549;50.852;3.816;2023-05-08T10:53:50;22.33;;;14.75;;
22764;SDS011;11549;50.852;3.816;2023-05-08T10:58:54;19.35;;;13.65;;
22764;SDS011;11549;50.852;3.816;2023-05-08T11:01:24;20.17;;;14.13;;
22764;SDS011;11549;50.852;3.816;2023-05-08T11:03:53;20.33;;;13.88;;
22764;SDS011;11549;50.852;3.816;2023-05-08T11:06:43;20.83;;;14.38;;
22764;SDS011;11549;50.852;3.816;2023-05-08T11:09:19;21.15;;;14.40;;
22764;SDS011;11549;50.852;3.816;2023-05-08T11:12:03;22.38;;;14.20;;
22764;SDS011;11549;50.852;3.816;2023-05-08T11:14:35;20.45;;;13.02;;
22764;SDS011;11549;50.852;3.816;2023-05-08T11:17:08;17.40;;;12.15;;
22764;SDS011;11549;50.852;3.816;2023-05-08T11:19:37;16.73;;;11.93;;
22764;SDS011;11549;50.852;3.816;2023-05-08T11:22:23;16.20;;;10.85;;
22764;SDS011;11549;50.852;3.816;2023-05-08T11:24:54;17.60;;;11.30;;
22764;SDS011;11549;50.852;3.816;2023-05-08T11:27:35;17.95;;;12.07;;
22764;SDS011;11549;50.852;3.816;2023-05-08T11:30:24;16.02;;;11.00;;
22764;SDS011;11549;50.852;3.816;2023-05-08T11:33:11;15.65;;;11.40;;
22764;SDS011;11549;50.852;3.816;2023-05-08T11:35:50;15.63;;;10.65;;
22764;SDS011;11549;50.852;3.816;2023-05-08T11:38:26;15.95;;;10.93;;
22764;SDS011;11549;50.852;3.816;2023-05-08T11:40:56;16.00;;;11.25;;
22764;SDS011;11549;50.852;3.816;2023-05-08T11:43:30;15.18;;;10.85;;
22764;SDS011;11549;50.852;3.816;2023-05-08T11:46:18;12.95;;;10.02;;
22764;SDS011;11549;50.852;3.816;2023-05-08T11:48:47;15.57;;;11.20;;
22764;SDS011;11549;50.852;3.816;2023-05-08T11:51:16;15.48;;;10.73;;
22764;SDS011;11549;50.852;3.816;2023-05-08T11:53:47;15.23;;;10.48;;
22764;SDS011;11549;50.852;3.816;2023-05-08T11:56:15;17.38;;;11.80;;
22764;SDS011;11549;50.852;3.816;2023-05-08T11:58:44;16.48;;;11.52;;
22764;SDS011;11549;50.852;3.816;2023-05-08T12:01:15;15.40;;;11.65;;
22764;SDS011;11549;50.852;3.816;2023-05-08T12:06:15;15.13;;;11.32;;
22764;SDS011;11549;50.852;3.816;2023-05-08T12:08:47;14.70;;;11.05;;
22764;SDS011;11549;50.852;3.816;2023-05-08T12:11:20;13.38;;;10.25;;
22764;SDS011;11549;50.852;3.816;2023-05-08T12:13:50;13.73;;;10.15;;
22764;SDS011;11549;50.852;3.816;2023-05-08T12:16:19;13.35;;;9.45;;
22764;SDS011;11549;50.852;3.816;2023-05-08T12:18:49;14.25;;;9.75;;
22764;SDS011;11549;50.852;3.816;2023-05-08T12:21:18;16.95;;;10.60;;
22764;SDS011;11549;50.852;3.816;2023-05-08T12:23:49;16.63;;;10.65;;
22764;SDS011;11549;50.852;3.816;2023-05-08T12:26:17;13.85;;;9.95;;
22764;SDS011;11549;50.852;3.816;2023-05-08T12:28:47;18.60;;;12.55;;
22764;SDS011;11549;50.852;3.816;2023-05-08T12:31:22;17.00;;;12.50;;
22764;SDS011;11549;50.852;3.816;2023-05-08T12:33:50;17.58;;;12.05;;
22764;SDS011;11549;50.852;3.816;2023-05-08T12:36:19;16.95;;;11.73;;
22764;SDS011;11549;50.852;3.816;2023-05-08T12:38:50;18.88;;;12.05;;
22764;SDS011;11549;50.852;3.816;2023-05-08T12:41:22;19.60;;;12.43;;
22764;SDS011;11549;50.852;3.816;2023-05-08T12:43:51;17.30;;;12.38;;
22764;SDS011;11549;50.852;3.816;2023-05-08T12:46:20;18.50;;;12.35;;
22764;SDS011;11549;50.852;3.816;2023-05-08T12:48:48;19.33;;;12.32;;
22764;SDS011;11549;50.852;3.816;2023-05-08T12:51:16;18.40;;;12.00;;
22764;SDS011;11549;50.852;3.816;2023-05-08T12:53:44;17.48;;;11.48;;
22764;SDS011;11549;50.852;3.816;2023-05-08T12:56:14;16.63;;;11.02;;
22764;SDS011;11549;50.852;3.816;2023-05-08T12:58:48;19.75;;;13.18;;
22764;SDS011;11549;50.852;3.816;2023-05-08T13:01:17;16.90;;;11.35;;
22764;SDS011;11549;50.852;3.816;2023-05-08T13:03:51;18.80;;;12.25;;
22764;SDS011;11549;50.852;3.816;2023-05-08T13:06:27;18.10;;;12.05;;
22764;SDS011;11549;50.852;3.816;2023-05-08T13:08:57;17.45;;;12.25;;
22764;SDS011;11549;50.852;3.816;2023-05-08T13:11:30;14.95;;;11.63;;
22764;SDS011;11549;50.852;3.816;2023-05-08T13:13:59;17.02;;;12.10;;
22764;SDS011;11549;50.852;3.816;2023-05-08T13:16:28;15.43;;;12.50;;
22764;SDS011;11549;50.852;3.816;2023-05-08T13:18:56;16.80;;;12.45;;
22764;SDS011;11549;50.852;3.816;2023-05-08T13:21:24;16.27;;;11.63;;
22764;SDS011;11549;50.852;3.816;2023-05-08T13:23:53;15.60;;;11.40;;
22764;SDS011;11549;50.852;3.816;2023-05-08T13:26:22;13.85;;;11.35;;
22764;SDS011;11549;50.852;3.816;2023-05-08T13:28:52;15.27;;;11.90;;
22764;SDS011;11549;50.852;3.816;2023-05-08T13:31:22;16.25;;;12.20;;
22764;SDS011;11549;50.852;3.816;2023-05-08T13:33:50;14.65;;;12.43;;
22764;SDS011;11549;50.852;3.816;2023-05-08T13:36:18;17.40;;;13.95;;
22764;SDS011;11549;50.852;3.816;2023-05-08T13:38:47;17.02;;;12.90;;
22764;SDS011;11549;50.852;3.816;2023-05-08T13:41:16;17.83;;;14.05;;
22764;SDS011;11549;50.852;3.816;2023-05-08T13:43:45;18.45;;;15.50;;
22764;SDS011;11549;50.852;3.816;2023-05-08T13:46:15;19.83;;;16.98;;
22764;SDS011;11549;50.852;3.816;2023-05-08T13:48:44;23.58;;;19.10;;
22764;SDS011;11549;50.852;3.816;2023-05-08T13:51:12;24.10;;;19.67;;
22764;SDS011;11549;50.852;3.816;2023-05-08T13:53:40;23.00;;;18.10;;
22764;SDS011;11549;50.852;3.816;2023-05-08T13:56:09;20.33;;;16.23;;
22764;SDS011;11549;50.852;3.816;2023-05-08T13:58:37;20.05;;;15.73;;
22764;SDS011;11549;50.852;3.816;2023-05-08T14:01:05;20.13;;;15.90;;
22764;SDS011;11549;50.852;3.816;2023-05-08T14:03:53;18.92;;;15.65;;
22764;SDS011;11549;50.852;3.816;2023-05-08T14:06:21;21.92;;;16.55;;
22764;SDS011;11549;50.852;3.816;2023-05-08T14:08:50;18.08;;;14.27;;
22764;SDS011;11549;50.852;3.816;2023-05-08T14:11:22;22.23;;;16.83;;
22764;SDS011;11549;50.852;3.816;2023-05-08T14:13:51;20.70;;;16.55;;
22764;SDS011;11549;50.852;3.816;2023-05-08T14:16:19;22.50;;;17.30;;
22764;SDS011;11549;50.852;3.816;2023-05-08T14:18:47;21.48;;;16.38;;
22764;SDS011;11549;50.852;3.816;2023-05-08T14:21:17;21.73;;;16.70;;
22764;SDS011;11549;50.852;3.816;2023-05-08T14:23:45;22.48;;;16.77;;
22764;SDS011;11549;50.852;3.816;2023-05-08T14:26:13;22.67;;;17.98;;
22764;SDS011;11549;50.852;3.816;2023-05-08T14:28:42;24.83;;;17.02;;
22764;SDS011;11549;50.852;3.816;2023-05-08T14:31:10;20.40;;;16.10;;
22764;SDS011;11549;50.852;3.816;2023-05-08T14:33:39;18.60;;;15.10;;
22764;SDS011;11549;50.852;3.816;2023-05-08T14:36:07;16.67;;;13.15;;
22764;SDS011;11549;50.852;3.816;2023-05-08T14:38:37;23.88;;;18.15;;
22764;SDS011;11549;50.852;3.816;2023-05-08T14:41:06;24.02;;;18.85;;
22764;SDS011;11549;50.852;3.816;2023-05-08T14:43:34;23.85;;;18.52;;